Time;durP1;ratioP1;P1;durP2;ratioP2;P2;SDS_P1;SDS_P2;PMS_P1;PMS_P2;Temp;Humidity;BMP_temperature;BMP_pressure;BME280_temperature;BME280_humidity;BME280_pressure;Samples;Min_cycle;Max_cycle;Signal;HPM_P1;HPM_P2
2024/01/13 04:02:36;;;;;;;2.60;2.40;;;21.80;22.20;;;;;;5007749;23;45863;-44
2024/01/13 04:05:02;;;;;;;2.28;2.08;;;21.80;22.20;;;;;;5001402;28;46101;-45
2024/01/13 04:07:27;;;;;;;2.50;2.30;;;21.80;22.20;;;;;;4983937;28;45775;-46
2024/01/13 04:09:53;;;;;;;2.20;2.00;;;21.80;22.20;;;;;;5012659;28;45759;-43
2024/01/13 04:12:18;;;;;;;2.30;2.10;;;21.80;22.20;;;;;;4982413;28;45209;-44
2024/01/13 04:14:44;;;;;;;2.33;2.13;;;21.80;22.20;;;;;;4984951;28;45254;-44
2024/01/13 04:17:10;;;;;;;2.30;2.10;;;21.80;22.20;;;;;;4953498;28;45483;-43
2024/01/13 04:19:35;;;;;;;2.30;2.10;;;21.80;22.20;;;;;;4983471;28;45731;-45
2024/01/13 04:22:01;;;;;;;2.50;2.30;;;21.70;22.10;;;;;;4976543;28;45608;-44
2024/01/13 04:24:27;;;;;;;2.40;2.20;;;21.80;22.20;;;;;;4984086;28;45607;-42
2024/01/13 04:26:52;;;;;;;2.40;2.20;;;21.70;22.10;;;;;;4976583;28;45391;-42
2024/01/13 04:29:18;;;;;;;2.23;2.03;;;21.70;22.10;;;;;;4970245;28;46441;-43
2024/01/13 04:31:43;;;;;;;2.07;1.97;;;21.70;22.20;;;;;;4965394;28;45461;-43
2024/01/13 04:34:09;;;;;;;2.57;2.37;;;21.70;22.20;;;;;;4973003;28;45364;-45
2024/01/13 04:36:34;;;;;;;2.28;2.08;;;21.70;22.10;;;;;;4972514;28;45551;-43
2024/01/13 04:39:00;;;;;;;2.53;2.28;;;21.70;22.20;;;;;;4985233;28;46391;-44
2024/01/13 04:41:25;;;;;;;2.58;2.38;;;21.70;22.10;;;;;;4979151;28;45211;-44
2024/01/13 04:43:51;;;;;;;2.30;2.10;;;21.70;22.10;;;;;;4986967;28;46197;-43
2024/01/13 04:46:16;;;;;;;2.20;2.00;;;21.70;22.20;;;;;;4971106;28;45233;-42
2024/01/13 04:48:42;;;;;;;2.38;2.17;;;21.70;22.10;;;;;;4980637;28;46132;-42
2024/01/13 04:51:08;;;;;;;2.03;1.90;;;21.70;22.20;;;;;;4983654;28;45299;-44
2024/01/13 04:53:33;;;;;;;2.30;2.10;;;21.70;22.20;;;;;;4989861;28;45350;-43
2024/01/13 04:55:59;;;;;;;2.03;1.90;;;21.70;22.20;;;;;;4983081;28;45407;-42
2024/01/13 04:58:25;;;;;;;2.22;2.03;;;21.70;22.20;;;;;;4969736;28;45598;-42
2024/01/13 05:00:50;;;;;;;2.30;2.10;;;21.70;22.20;;;;;;4964559;28;45141;-42
2024/01/13 05:03:16;;;;;;;2.30;2.10;;;21.60;22.20;;;;;;4978413;28;44950;-44
2024/01/13 05:05:41;;;;;;;2.22;2.03;;;21.60;22.20;;;;;;4978527;28;45512;-44
2024/01/13 05:08:07;;;;;;;2.28;2.08;;;21.70;22.20;;;;;;4994096;28;46326;-45
2024/01/13 05:10:33;;;;;;;2.10;2.00;;;21.60;22.20;;;;;;4978017;28;45197;-42
2024/01/13 05:12:58;;;;;;;2.80;2.40;;;21.60;22.20;;;;;;4971528;28;44695;-42
2024/01/13 05:15:24;;;;;;;2.13;1.92;;;21.60;22.20;;;;;;4962281;28;45449;-43
2024/01/13 05:17:49;;;;;;;2.50;2.30;;;21.60;22.20;;;;;;4984361;28;46149;-41
2024/01/13 05:20:15;;;;;;;2.38;2.17;;;21.60;22.20;;;;;;4976831;28;47904;-45
2024/01/13 05:22:40;;;;;;;2.20;2.00;;;21.60;22.20;;;;;;4963072;28;45636;-42
2024/01/13 05:25:07;;;;;;;2.40;2.20;;;21.60;22.20;;;;;;4978683;28;45403;-42
2024/01/13 05:27:33;;;;;;;2.40;2.20;;;21.60;22.20;;;;;;4982622;28;45550;-44
2024/01/13 05:29:58;;;;;;;2.30;2.10;;;21.60;22.20;;;;;;4986788;28;45264;-42
2024/01/13 05:32:24;;;;;;;2.37;2.17;;;21.60;22.20;;;;;;4961592;28;45539;-44
2024/01/13 05:34:52;;;;;;;2.20;2.00;;;21.60;22.20;;;;;;4983085;28;60728;-43
2024/01/13 05:37:17;;;;;;;2.20;1.80;;;21.60;22.20;;;;;;4976693;28;44989;-45
2024/01/13 05:39:43;;;;;;;2.30;2.10;;;21.60;22.30;;;;;;4981447;28;46422;-43
2024/01/13 05:42:08;;;;;;;2.37;2.17;;;21.50;22.20;;;;;;4975340;28;45538;-43
2024/01/13 05:44:34;;;;;;;2.47;2.27;;;21.50;22.20;;;;;;4982981;28;45580;-45
2024/01/13 05:47:00;;;;;;;2.30;2.10;;;21.60;22.30;;;;;;4962247;28;45601;-42
2024/01/13 05:49:25;;;;;;;2.58;2.38;;;21.60;22.30;;;;;;4986763;28;45161;-41
2024/01/13 05:51:51;;;;;;;2.67;2.45;;;21.60;22.30;;;;;;4971542;28;45221;-43
2024/01/13 05:54:16;;;;;;;2.50;2.30;;;21.50;22.20;;;;;;4986974;28;45527;-43
2024/01/13 05:56:42;;;;;;;2.40;2.20;;;21.50;22.30;;;;;;4970770;28;45354;-43
2024/01/13 05:59:07;;;;;;;2.63;2.42;;;21.50;22.30;;;;;;4988004;28;45962;-45
2024/01/13 06:01:33;;;;;;;2.58;2.38;;;21.50;22.30;;;;;;4961168;28;46469;-42
2024/01/13 06:03:58;;;;;;;2.50;2.30;;;21.50;22.30;;;;;;4983452;28;45926;-43
2024/01/13 06:06:24;;;;;;;2.60;2.40;;;21.50;22.30;;;;;;4976148;28;46012;-42
2024/01/13 06:08:49;;;;;;;2.58;2.38;;;21.50;22.30;;;;;;4987383;28;45266;-43
2024/01/13 06:11:15;;;;;;;2.70;2.50;;;21.50;22.30;;;;;;4984603;28;46333;-42
2024/01/13 06:13:41;;;;;;;2.75;2.55;;;21.50;22.30;;;;;;4961425;28;45640;-42
2024/01/13 06:16:25;;;;;;;2.80;2.42;;;21.50;22.30;;;;;;4961827;28;45481;-42
2024/01/13 06:19:11;;;;;;;2.60;2.40;;;21.40;22.30;;;;;;4962310;28;45368;-43
2024/01/13 06:21:55;;;;;;;2.90;2.60;;;21.40;22.30;;;;;;4966674;28;45970;-43
2024/01/13 06:24:20;;;;;;;2.77;2.57;;;21.40;22.30;;;;;;4967594;28;45818;-42
2024/01/13 06:26:46;;;;;;;2.50;2.30;;;21.40;22.30;;;;;;4972943;28;46544;-42
2024/01/13 06:29:11;;;;;;;3.17;2.80;;;21.40;22.30;;;;;;4995650;28;45511;-43
2024/01/13 06:31:37;;;;;;;3.00;2.70;;;21.40;22.30;;;;;;4970779;28;45282;-43
2024/01/13 06:34:02;;;;;;;2.83;2.60;;;21.40;22.30;;;;;;4989460;28;45469;-44
2024/01/13 06:36:28;;;;;;;2.60;2.40;;;21.40;22.30;;;;;;4961545;28;45989;-42
2024/01/13 06:38:54;;;;;;;3.20;2.90;;;21.40;22.30;;;;;;4972836;28;45025;-43
2024/01/13 06:41:19;;;;;;;3.10;2.80;;;21.40;22.30;;;;;;4976678;28;45094;-43
2024/01/13 06:43:45;;;;;;;2.90;2.60;;;21.40;22.30;;;;;;4980610;28;45825;-42
2024/01/13 06:46:30;;;;;;;3.40;3.10;;;21.40;22.30;;;;;;4963284;28;45704;-42
2024/01/13 06:49:16;;;;;;;3.20;2.90;;;21.40;22.40;;;;;;4974747;28;45688;-42
2024/01/13 06:52:02;;;;;;;3.40;3.10;;;21.30;22.30;;;;;;4968391;28;45649;-44
2024/01/13 06:54:48;;;;;;;3.13;2.83;;;21.30;22.30;;;;;;4972244;28;46268;-43
2024/01/13 06:57:34;;;;;;;3.30;3.00;;;21.30;22.30;;;;;;4971295;28;46548;-42
2024/01/13 07:00:20;;;;;;;3.23;2.93;;;21.30;22.30;;;;;;4928066;28;45976;-43
2024/01/13 07:03:07;;;;;;;3.27;2.97;;;21.30;22.30;;;;;;4934747;28;45484;-44
2024/01/13 07:05:52;;;;;;;3.20;2.90;;;21.30;22.40;;;;;;4943440;28;45472;-42
2024/01/13 07:08:18;;;;;;;3.40;3.10;;;21.30;22.40;;;;;;4977629;28;45462;-43
2024/01/13 07:10:44;;;;;;;3.50;3.07;;;21.30;22.40;;;;;;4977509;28;45503;-43
2024/01/13 07:13:09;;;;;;;3.13;2.83;;;21.30;22.40;;;;;;4969893;28;45031;-43
2024/01/13 07:15:35;;;;;;;3.27;2.97;;;21.30;22.40;;;;;;4973908;28;45573;-42
2024/01/13 07:18:00;;;;;;;3.37;3.07;;;21.30;22.40;;;;;;4984940;28;45498;-43
2024/01/13 07:20:26;;;;;;;3.70;3.30;;;21.20;22.30;;;;;;4957991;28;44962;-43
2024/01/13 07:22:52;;;;;;;3.33;3.03;;;21.20;22.40;;;;;;4971018;28;45085;-43
2024/01/13 07:25:18;;;;;;;3.20;2.90;;;21.20;22.40;;;;;;4977538;28;45373;-42
2024/01/13 07:27:43;;;;;;;3.60;3.30;;;21.20;22.40;;;;;;4985394;28;45393;-42
2024/01/13 07:30:10;;;;;;;3.60;3.30;;;21.20;22.40;;;;;;4976400;28;45594;-41
2024/01/13 07:32:35;;;;;;;3.30;3.00;;;21.20;22.40;;;;;;4974605;28;45332;-45
2024/01/13 07:35:01;;;;;;;3.40;3.10;;;21.20;22.40;;;;;;4982417;28;45651;-46
2024/01/13 07:37:26;;;;;;;3.40;3.10;;;21.20;22.40;;;;;;4976229;28;45277;-43
2024/01/13 07:39:52;;;;;;;3.40;3.10;;;21.20;22.40;;;;;;4975310;28;45338;-43
2024/01/13 07:42:17;;;;;;;3.83;3.40;;;21.20;22.40;;;;;;4972619;28;45293;-43
2024/01/13 07:44:43;;;;;;;3.60;3.30;;;21.20;22.40;;;;;;4983566;28;45150;-41
2024/01/13 07:47:08;;;;;;;3.60;3.30;;;21.20;22.40;;;;;;4965073;28;46319;-44
2024/01/13 07:49:34;;;;;;;4.10;3.70;;;21.20;22.40;;;;;;4981960;28;45244;-45
2024/01/13 07:51:59;;;;;;;3.63;3.30;;;21.20;22.50;;;;;;4972717;28;45384;-43
2024/01/13 07:54:25;;;;;;;4.00;3.63;;;21.10;22.40;;;;;;4982330;28;45285;-43
2024/01/13 07:56:51;;;;;;;3.93;3.53;;;21.10;22.40;;;;;;4967997;28;45332;-43
2024/01/13 07:59:17;;;;;;;4.13;3.73;;;21.10;22.40;;;;;;4970943;28;45252;-42
2024/01/13 08:01:43;;;;;;;4.22;3.80;;;21.10;22.50;;;;;;4952772;28;46180;-43
2024/01/13 08:04:08;;;;;;;4.10;3.70;;;21.10;22.50;;;;;;4977623;28;45350;-42
2024/01/13 08:06:34;;;;;;;4.40;3.87;;;21.10;22.50;;;;;;4973842;28;46163;-43
2024/01/13 08:08:59;;;;;;;4.33;3.93;;;21.10;22.50;;;;;;4962587;28;46646;-43
2024/01/13 08:11:25;;;;;;;4.30;3.90;;;21.10;22.50;;;;;;4970374;28;48487;-42
2024/01/13 08:13:51;;;;;;;4.40;4.00;;;21.10;22.50;;;;;;4961663;28;45746;-42
2024/01/13 08:16:16;;;;;;;4.57;4.10;;;21.10;23.00;;;;;;4971740;28;46589;-43
2024/01/13 08:18:42;;;;;;;4.32;3.92;;;21.00;22.50;;;;;;4982530;28;45598;-44
2024/01/13 08:21:07;;;;;;;4.50;4.10;;;21.10;22.50;;;;;;4966676;28;45367;-44
2024/01/13 08:23:33;;;;;;;4.13;3.70;;;21.10;22.50;;;;;;4979450;28;45286;-44
2024/01/13 08:25:59;;;;;;;4.22;3.83;;;21.10;22.50;;;;;;4968140;28;46217;-44
2024/01/13 08:28:25;;;;;;;4.55;4.10;;;21.00;22.50;;;;;;4984092;28;44807;-44
2024/01/13 08:30:50;;;;;;;4.53;4.00;;;21.00;22.60;;;;;;4969441;28;44711;-44
2024/01/13 08:33:16;;;;;;;4.30;3.90;;;21.00;23.00;;;;;;4973583;28;47290;-44
2024/01/13 08:35:41;;;;;;;5.40;4.20;;;21.00;22.50;;;;;;4973124;28;46049;-44
2024/01/13 08:38:07;;;;;;;4.60;3.92;;;21.00;22.50;;;;;;4979945;28;45602;-45
2024/01/13 08:40:33;;;;;;;4.47;4.00;;;21.00;22.60;;;;;;4971370;28;45412;-46
2024/01/13 08:43:01;;;;;;;4.38;3.95;;;21.00;22.50;;;;;;4977603;28;45246;-47
2024/01/13 08:45:29;;;;;;;4.30;3.85;;;21.00;22.50;;;;;;4953760;28;46106;-47
2024/01/13 08:47:58;;;;;;;4.27;3.80;;;20.90;22.50;;;;;;4960457;28;45557;-45
2024/01/13 08:50:24;;;;;;;4.20;3.75;;;20.90;22.60;;;;;;4954485;28;45290;-46
2024/01/13 08:52:55;;;;;;;4.17;3.77;;;20.90;22.60;;;;;;4981037;28;46084;-46
2024/01/13 08:55:26;;;;;;;4.85;4.00;;;20.90;22.60;;;;;;4972691;28;46370;-46
2024/01/13 08:57:52;;;;;;;5.63;4.03;;;20.90;22.60;;;;;;4962537;28;46086;-42
2024/01/13 09:00:18;;;;;;;4.25;3.70;;;20.90;22.60;;;;;;4951471;28;45623;-45
2024/01/13 09:02:44;;;;;;;4.45;3.63;;;20.90;22.60;;;;;;4975447;28;45319;-43
2024/01/13 09:05:10;;;;;;;4.05;3.58;;;20.90;22.60;;;;;;4963822;28;45303;-44
2024/01/13 09:07:36;;;;;;;4.25;3.53;;;20.90;22.60;;;;;;4970703;28;45297;-44
2024/01/13 09:10:03;;;;;;;4.22;3.70;;;20.90;22.60;;;;;;4979354;28;45242;-45
2024/01/13 09:12:29;;;;;;;4.03;3.40;;;20.90;22.60;;;;;;4978188;28;45374;-47
2024/01/13 09:14:54;;;;;;;4.00;3.60;;;20.90;22.60;;;;;;4982384;28;45977;-44
2024/01/13 09:17:20;;;;;;;3.70;3.40;;;20.80;22.60;;;;;;4964755;28;45350;-44
2024/01/13 09:19:45;;;;;;;4.40;3.50;;;20.80;22.60;;;;;;4982705;28;45351;-46
2024/01/13 09:22:11;;;;;;;4.17;3.47;;;20.80;22.60;;;;;;4965368;28;45786;-43
2024/01/13 09:24:37;;;;;;;3.53;3.00;;;20.80;22.60;;;;;;4965457;28;45832;-43
2024/01/13 09:27:02;;;;;;;3.40;3.10;;;20.80;22.60;;;;;;4972967;28;45234;-47
2024/01/13 09:29:28;;;;;;;3.53;3.22;;;20.80;22.60;;;;;;4981101;28;45274;-45
2024/01/13 09:31:53;;;;;;;4.10;3.40;;;20.80;22.60;;;;;;4964135;28;46214;-46
2024/01/13 09:34:20;;;;;;;3.67;3.30;;;20.80;22.70;;;;;;4974111;28;45794;-45
2024/01/13 09:36:45;;;;;;;3.43;3.13;;;20.80;22.70;;;;;;4961492;28;45604;-49
2024/01/13 09:39:11;;;;;;;3.45;2.90;;;20.80;22.70;;;;;;4977939;28;45143;-45
2024/01/13 09:41:37;;;;;;;3.75;3.33;;;20.80;22.70;;;;;;4971118;28;45325;-43
2024/01/13 09:44:05;;;;;;;3.55;3.25;;;20.80;22.70;;;;;;4978304;28;45926;-44
2024/01/13 09:46:31;;;;;;;3.50;3.00;;;20.80;22.70;;;;;;4942174;28;45969;-44
2024/01/13 09:48:56;;;;;;;4.10;3.40;;;20.70;22.70;;;;;;4982263;28;45162;-43
2024/01/13 09:51:22;;;;;;;4.60;3.40;;;20.70;22.70;;;;;;4953010;28;45309;-42
2024/01/13 09:53:53;;;;;;;3.63;3.23;;;20.70;22.70;;;;;;4982632;28;45081;-45
2024/01/13 09:56:34;;;;;;;3.95;3.50;;;20.70;22.70;;;;;;4951399;28;44963;-46
2024/01/13 09:59:00;;;;;;;3.63;3.17;;;20.70;23.20;;;;;;4963497;28;45021;-45
2024/01/13 10:01:26;;;;;;;3.60;3.30;;;20.70;22.70;;;;;;4964099;28;45638;-43
2024/01/13 10:03:51;;;;;;;4.00;3.45;;;20.70;22.70;;;;;;4978565;28;45496;-45
2024/01/13 10:06:17;;;;;;;3.90;3.50;;;20.70;22.80;;;;;;4959114;28;45063;-43
2024/01/13 10:08:43;;;;;;;4.10;3.70;;;20.70;22.80;;;;;;4969542;28;45282;-43
2024/01/13 10:11:09;;;;;;;4.35;3.58;;;20.70;22.70;;;;;;4972097;28;45522;-43
2024/01/13 10:13:36;;;;;;;3.60;3.28;;;20.70;22.80;;;;;;4983350;28;45961;-45
2024/01/13 10:16:02;;;;;;;4.22;3.63;;;20.70;22.80;;;;;;4958683;28;45371;-44
2024/01/13 10:18:28;;;;;;;3.65;3.28;;;20.70;22.80;;;;;;4948722;28;45287;-45
2024/01/13 10:20:53;;;;;;;3.30;3.00;;;20.70;22.80;;;;;;4942991;28;45825;-45
2024/01/13 10:23:19;;;;;;;3.87;3.40;;;20.60;22.80;;;;;;4974014;28;45871;-44
2024/01/13 10:25:45;;;;;;;3.53;3.22;;;20.60;22.80;;;;;;4973573;28;45355;-45
2024/01/13 10:28:10;;;;;;;3.63;3.33;;;20.60;22.80;;;;;;4983531;28;45139;-45
2024/01/13 10:30:36;;;;;;;4.47;3.75;;;20.60;22.80;;;;;;4964231;28;45204;-44
2024/01/13 10:33:02;;;;;;;3.67;3.08;;;20.60;22.80;;;;;;4970959;28;46232;-45
2024/01/13 10:35:28;;;;;;;4.50;3.33;;;20.60;22.80;;;;;;4972108;28;45287;-44
2024/01/13 10:37:59;;;;;;;3.33;3.03;;;20.60;22.80;;;;;;4988235;28;45289;-44
2024/01/13 10:40:25;;;;;;;3.90;3.50;;;20.60;22.80;;;;;;4967772;28;46030;-44
2024/01/13 10:42:55;;;;;;;3.90;3.50;;;20.60;22.80;;;;;;4988162;28;45884;-44
2024/01/13 10:45:22;;;;;;;4.00;3.38;;;20.60;22.90;;;;;;4971307;28;45695;-44
2024/01/13 10:47:51;;;;;;;3.80;3.40;;;20.60;22.90;;;;;;4987284;28;45635;-45
2024/01/13 10:50:17;;;;;;;9.20;4.10;;;20.60;22.90;;;;;;4979088;28;45435;-43
2024/01/13 10:52:57;;;;;;;5.47;3.45;;;20.40;22.90;;;;;;4966279;28;45008;-44
2024/01/13 10:55:23;;;;;;;4.13;3.15;;;20.30;23.00;;;;;;4960344;28;45531;-44
2024/01/13 10:57:48;;;;;;;4.70;3.65;;;20.30;23.00;;;;;;4986272;28;45179;-43
2024/01/13 11:00:14;;;;;;;4.15;2.95;;;20.40;23.10;;;;;;4955874;28;45435;-45
2024/01/13 11:02:41;;;;;;;4.85;3.22;;;20.40;23.00;;;;;;4940561;28;45340;-43
2024/01/13 11:05:08;;;;;;;6.65;2.92;;;20.40;23.00;;;;;;4962729;28;45337;-44
2024/01/13 11:07:35;;;;;;;3.90;2.88;;;20.40;23.00;;;;;;4970388;28;45797;-44
2024/01/13 11:10:00;;;;;;;4.20;2.75;;;20.40;23.00;;;;;;4979345;28;47758;-44
2024/01/13 11:12:29;;;;;;;4.90;2.90;;;20.40;23.00;;;;;;4941111;28;46037;-43
2024/01/13 11:15:14;;;;;;;4.05;2.80;;;20.40;23.00;;;;;;4987420;28;45402;-46
2024/01/13 11:17:40;;;;;;;3.78;2.90;;;20.40;23.00;;;;;;4964214;28;45313;-43
2024/01/13 11:20:08;;;;;;;3.60;2.80;;;20.40;23.10;;;;;;4978066;28;45470;-44
2024/01/13 11:22:38;;;;;;;2.83;2.50;;;20.40;23.10;;;;;;4961783;28;45759;-43
2024/01/13 11:25:25;;;;;;;3.80;2.80;;;20.40;23.10;;;;;;4979063;28;44919;-47
2024/01/13 11:28:01;;;;;;;5.90;2.75;;;20.40;23.10;;;;;;4985407;28;45314;-44
2024/01/13 11:30:39;;;;;;;4.32;2.60;;;20.40;23.10;;;;;;4966255;28;45362;-46
2024/01/13 11:33:17;;;;;;;4.18;2.60;;;20.40;23.10;;;;;;4963713;28;45526;-43
2024/01/13 11:35:48;;;;;;;3.80;2.63;;;20.40;23.10;;;;;;4975243;28;45296;-43
2024/01/13 11:38:14;;;;;;;2.72;2.50;;;20.40;23.10;;;;;;4981064;28;45454;-45
2024/01/13 11:40:46;;;;;;;5.47;2.37;;;20.40;23.10;;;;;;4966512;28;45961;-45
2024/01/13 11:43:23;;;;;;;3.25;2.60;;;20.40;23.10;;;;;;4961119;28;46095;-47
2024/01/13 11:45:49;;;;;;;2.80;2.40;;;20.40;23.10;;;;;;4963430;28;45180;-46
2024/01/13 11:48:37;;;;;;;3.00;2.70;;;20.40;23.10;;;;;;4955684;28;45720;-44
2024/01/13 11:51:08;;;;;;;2.72;2.42;;;20.40;23.10;;;;;;4968013;28;45164;-43
2024/01/13 11:53:35;;;;;;;2.53;2.33;;;20.40;23.10;;;;;;4974146;28;45343;-48
2024/01/13 11:56:01;;;;;;;2.57;2.37;;;20.30;23.10;;;;;;4967874;28;45969;-45
2024/01/13 11:58:27;;;;;;;2.63;2.23;;;20.30;23.10;;;;;;4962013;28;45186;-45
2024/01/13 12:00:52;;;;;;;2.50;2.30;;;20.30;23.10;;;;;;4929857;28;45220;-45
2024/01/13 12:03:18;;;;;;;4.53;2.43;;;20.40;23.20;;;;;;4954375;28;46025;-46
2024/01/13 12:05:43;;;;;;;2.70;2.50;;;20.30;23.10;;;;;;4967443;28;45245;-45
2024/01/13 12:08:09;;;;;;;2.30;2.10;;;20.30;23.10;;;;;;4972814;28;47850;-44
2024/01/13 12:10:44;;;;;;;2.35;2.10;;;20.40;23.20;;;;;;4932570;28;45371;-46
2024/01/13 12:13:19;;;;;;;2.47;2.28;;;20.30;23.10;;;;;;4982722;28;45360;-44
2024/01/13 12:15:46;;;;;;;2.50;2.30;;;20.30;23.10;;;;;;4945263;28;45022;-45
2024/01/13 12:18:27;;;;;;;2.83;2.40;;;20.30;23.10;;;;;;4967693;28;45552;-45
2024/01/13 12:20:59;;;;;;;2.40;2.20;;;20.30;23.20;;;;;;4966226;28;45354;-43
2024/01/13 12:23:25;;;;;;;2.60;2.30;;;20.30;23.20;;;;;;4966307;28;45427;-44
2024/01/13 12:25:51;;;;;;;2.77;2.53;;;20.30;23.20;;;;;;4966784;28;45517;-45
2024/01/13 12:28:16;;;;;;;2.65;2.35;;;20.30;23.20;;;;;;4978806;28;45675;-44
2024/01/13 12:30:43;;;;;;;2.83;2.20;;;20.30;23.20;;;;;;4934633;28;45888;-45
2024/01/13 12:33:10;;;;;;;2.40;2.07;;;20.30;23.20;;;;;;4955992;28;45471;-43
2024/01/13 12:35:35;;;;;;;2.95;2.42;;;20.30;23.20;;;;;;4963707;28;45220;-44
2024/01/13 12:38:01;;;;;;;2.97;2.50;;;20.30;23.20;;;;;;4979942;28;44737;-43
2024/01/13 12:40:28;;;;;;;2.33;2.13;;;20.20;23.20;;;;;;4944535;28;45549;-47
2024/01/13 12:42:54;;;;;;;2.58;2.38;;;20.30;23.20;;;;;;4979522;28;46305;-43
2024/01/13 12:45:20;;;;;;;2.78;2.22;;;20.20;23.20;;;;;;4954919;28;45723;-44
2024/01/13 12:47:51;;;;;;;3.85;2.38;;;20.20;23.20;;;;;;4966512;28;45296;-44
2024/01/13 12:50:16;;;;;;;3.60;2.53;;;20.20;23.20;;;;;;4975484;28;45364;-43
2024/01/13 12:52:42;;;;;;;3.90;2.47;;;20.20;23.20;;;;;;4975471;28;46180;-43
2024/01/13 12:55:08;;;;;;;3.13;2.42;;;20.20;23.20;;;;;;4974246;28;45288;-43
2024/01/13 12:57:33;;;;;;;3.38;2.92;;;20.20;23.20;;;;;;4967674;28;46157;-44
2024/01/13 13:00:05;;;;;;;3.93;3.00;;;20.20;23.30;;;;;;4980116;28;45402;-44
2024/01/13 13:02:32;;;;;;;3.65;3.05;;;20.20;23.30;;;;;;4942975;28;45280;-43
2024/01/13 13:04:58;;;;;;;4.28;3.25;;;20.20;23.30;;;;;;4975985;28;45910;-43
2024/01/13 13:07:25;;;;;;;3.47;3.03;;;20.20;23.30;;;;;;4964143;28;45302;-46
2024/01/13 13:09:57;;;;;;;4.10;3.13;;;20.10;23.30;;;;;;4956791;28;45754;-43
2024/01/13 13:12:23;;;;;;;4.90;3.07;;;20.10;23.30;;;;;;4950591;28;52426;-45
2024/01/13 13:14:49;;;;;;;4.65;3.55;;;20.10;23.40;;;;;;4954304;28;45923;-47
2024/01/13 13:17:15;;;;;;;5.00;3.42;;;20.20;23.40;;;;;;4939572;28;45851;-47
2024/01/13 13:19:41;;;;;;;4.80;3.47;;;20.10;23.30;;;;;;4960691;28;45770;-44
2024/01/13 13:22:10;;;;;;;4.70;3.43;;;20.10;23.40;;;;;;4959695;28;46249;-46
2024/01/13 13:24:36;;;;;;;4.78;3.47;;;20.20;23.40;;;;;;4968739;28;45301;-44
2024/01/13 13:27:01;;;;;;;4.68;3.70;;;20.10;23.40;;;;;;4973032;28;45395;-45
2024/01/13 13:29:27;;;;;;;4.97;4.00;;;20.10;23.40;;;;;;4982443;28;45320;-43
2024/01/13 13:31:54;;;;;;;4.27;3.40;;;20.10;23.40;;;;;;4959767;28;45900;-44
2024/01/13 13:34:19;;;;;;;5.28;4.13;;;20.20;23.40;;;;;;4992936;28;45309;-46
2024/01/13 13:36:45;;;;;;;5.40;4.00;;;20.10;23.40;;;;;;4950655;28;44933;-46
2024/01/13 13:39:11;;;;;;;6.10;4.10;;;20.20;23.50;;;;;;4970207;28;46335;-47
2024/01/13 13:41:36;;;;;;;5.63;4.07;;;20.20;23.50;;;;;;4934581;28;47067;-43
2024/01/13 13:44:03;;;;;;;5.77;4.27;;;20.20;23.50;;;;;;4980592;28;45353;-46
2024/01/13 13:46:29;;;;;;;5.80;4.37;;;20.20;23.50;;;;;;4963952;28;45520;-44
2024/01/13 13:48:54;;;;;;;6.17;4.37;;;20.20;23.50;;;;;;4970171;28;45434;-44
2024/01/13 13:51:20;;;;;;;5.60;4.27;;;20.20;23.50;;;;;;4970709;28;45986;-43
2024/01/13 13:53:45;;;;;;;8.70;4.83;;;20.20;23.50;;;;;;4966944;28;45274;-44
2024/01/13 13:56:11;;;;;;;6.18;4.60;;;20.20;23.50;;;;;;4952573;28;45967;-45
2024/01/13 13:58:37;;;;;;;6.00;4.32;;;20.20;23.50;;;;;;4982411;28;45209;-45
2024/01/13 14:01:03;;;;;;;6.30;4.47;;;20.20;23.50;;;;;;4970073;28;46118;-45
2024/01/13 14:03:29;;;;;;;6.00;4.93;;;20.30;23.60;;;;;;4977717;28;46972;-44
2024/01/13 14:05:55;;;;;;;6.50;4.40;;;20.30;23.60;;;;;;4972808;28;45415;-45
2024/01/13 14:08:21;;;;;;;6.25;4.70;;;20.30;23.60;;;;;;4974975;28;45730;-45
2024/01/13 14:10:46;;;;;;;6.75;4.50;;;20.30;23.60;;;;;;4971400;28;45385;-44
2024/01/13 14:13:12;;;;;;;5.80;4.30;;;20.30;23.60;;;;;;4983844;28;45206;-43
2024/01/13 14:15:37;;;;;;;4.70;4.20;;;20.30;23.50;;;;;;4968052;28;45439;-43
2024/01/13 14:18:03;;;;;;;6.20;4.73;;;20.30;23.50;;;;;;4982423;28;45273;-45
2024/01/13 14:20:28;;;;;;;4.97;4.33;;;20.40;23.60;;;;;;4969303;28;45215;-46
2024/01/13 14:22:55;;;;;;;5.03;4.10;;;20.40;23.50;;;;;;4982261;28;45709;-44
2024/01/13 14:25:20;;;;;;;7.43;4.32;;;20.40;23.50;;;;;;4962346;28;45539;-43
2024/01/13 14:27:46;;;;;;;5.00;4.00;;;20.40;23.50;;;;;;4978589;28;45191;-44
2024/01/13 14:30:12;;;;;;;6.20;4.60;;;20.40;23.50;;;;;;4973558;28;45395;-43
2024/01/13 14:32:37;;;;;;;5.70;4.50;;;20.40;23.60;;;;;;4956021;28;45479;-43
2024/01/13 14:35:04;;;;;;;5.45;4.45;;;20.40;23.50;;;;;;4979947;28;45763;-43
2024/01/13 14:37:30;;;;;;;5.25;4.25;;;20.40;23.60;;;;;;4961544;28;45335;-45
2024/01/13 14:39:55;;;;;;;4.90;4.13;;;20.50;23.50;;;;;;4976453;28;45939;-45
2024/01/13 14:42:21;;;;;;;4.83;4.10;;;20.50;23.50;;;;;;4979291;28;45514;-44
2024/01/13 14:44:46;;;;;;;5.37;4.27;;;20.50;23.50;;;;;;4984873;28;45387;-44
2024/01/13 14:47:13;;;;;;;5.60;4.37;;;20.60;23.50;;;;;;4967749;28;46299;-45
2024/01/13 14:49:38;;;;;;;5.35;4.30;;;20.60;23.50;;;;;;4973150;28;45237;-44
2024/01/13 14:52:04;;;;;;;5.27;4.17;;;20.60;23.50;;;;;;4980552;28;45445;-43
2024/01/13 14:54:30;;;;;;;5.70;4.40;;;20.60;23.50;;;;;;4987496;28;45272;-44
2024/01/13 14:56:57;;;;;;;5.10;4.10;;;20.60;23.50;;;;;;4949443;28;45591;-43
2024/01/13 14:59:22;;;;;;;5.10;4.20;;;20.60;23.40;;;;;;4971939;28;45514;-43
2024/01/13 15:01:48;;;;;;;4.70;4.25;;;20.60;23.40;;;;;;4950637;28;45358;-43
2024/01/13 15:04:13;;;;;;;4.85;4.00;;;20.70;23.50;;;;;;4966400;28;44731;-46
2024/01/13 15:06:40;;;;;;;5.47;4.18;;;20.70;23.50;;;;;;4969778;28;45171;-47
2024/01/13 15:09:05;;;;;;;4.88;4.32;;;20.70;23.40;;;;;;4986426;28;45148;-49
2024/01/13 15:11:31;;;;;;;5.35;4.40;;;20.70;23.50;;;;;;4976840;28;45204;-44
2024/01/13 15:13:56;;;;;;;4.97;4.32;;;20.80;23.50;;;;;;4966549;28;45107;-45
2024/01/13 15:16:22;;;;;;;5.03;4.15;;;20.80;23.40;;;;;;4968472;28;45076;-43
2024/01/13 15:18:48;;;;;;;4.70;4.10;;;20.80;23.40;;;;;;4979142;28;45160;-44
2024/01/13 15:21:13;;;;;;;5.03;4.50;;;20.80;23.40;;;;;;4974356;28;45671;-45
2024/01/13 15:23:41;;;;;;;4.63;4.03;;;20.90;23.40;;;;;;4978855;28;45208;-45
2024/01/13 15:26:06;;;;;;;5.68;4.45;;;20.90;23.40;;;;;;4956775;28;45034;-44
2024/01/13 15:28:32;;;;;;;6.23;4.20;;;20.90;23.40;;;;;;4986072;28;46768;-44
2024/01/13 15:31:00;;;;;;;4.53;3.97;;;20.90;23.40;;;;;;4962357;28;45529;-43
2024/01/13 15:33:27;;;;;;;5.22;4.30;;;20.90;23.30;;;;;;4982172;28;45586;-43
2024/01/13 15:35:53;;;;;;;4.63;4.17;;;21.00;23.40;;;;;;4972912;28;45353;-43
2024/01/13 15:38:20;;;;;;;5.90;4.20;;;21.00;23.30;;;;;;4986873;28;46863;-44
2024/01/13 15:40:45;;;;;;;5.15;4.07;;;21.00;23.30;;;;;;4975728;28;45431;-44
2024/01/13 15:43:11;;;;;;;5.18;4.13;;;21.10;23.30;;;;;;4988487;28;45267;-43
2024/01/13 15:45:37;;;;;;;5.90;4.18;;;21.10;23.30;;;;;;4953649;28;45570;-45
2024/01/13 15:48:03;;;;;;;5.47;4.20;;;21.10;23.30;;;;;;4985885;28;45977;-45
2024/01/13 15:50:30;;;;;;;5.15;4.38;;;21.10;23.20;;;;;;4979149;28;45281;-45
2024/01/13 15:52:55;;;;;;;6.10;4.32;;;21.20;23.30;;;;;;4992077;28;45208;-44
2024/01/13 15:55:21;;;;;;;4.77;4.23;;;21.20;23.30;;;;;;4978493;28;45184;-43
2024/01/13 15:57:47;;;;;;;5.37;4.53;;;21.20;23.30;;;;;;4980569;28;46153;-47
2024/01/13 16:00:13;;;;;;;5.45;4.70;;;21.20;23.20;;;;;;4978935;28;45155;-45
2024/01/13 16:02:39;;;;;;;5.90;4.60;;;21.20;23.20;;;;;;4977168;28;45652;-45
2024/01/13 16:05:05;;;;;;;5.22;4.50;;;21.20;23.20;;;;;;4978428;28;45315;-45
2024/01/13 16:07:31;;;;;;;5.78;4.90;;;21.30;23.20;;;;;;4965832;28;46162;-43
2024/01/13 16:09:56;;;;;;;4.97;4.47;;;21.30;23.20;;;;;;4988822;28;44950;-45
2024/01/13 16:12:22;;;;;;;6.07;4.45;;;21.30;23.20;;;;;;4973931;28;45380;-44
2024/01/13 16:14:48;;;;;;;5.43;4.53;;;21.30;23.10;;;;;;4981233;28;45223;-43
2024/01/13 16:17:14;;;;;;;5.47;4.53;;;21.40;23.20;;;;;;4957989;28;45183;-45
2024/01/13 16:19:39;;;;;;;5.00;4.50;;;21.40;23.10;;;;;;4980103;28;47278;-47
2024/01/13 16:22:05;;;;;;;4.87;4.33;;;21.40;23.10;;;;;;4976733;28;45206;-45
2024/01/13 16:24:30;;;;;;;5.30;4.70;;;21.40;23.10;;;;;;4987173;28;45070;-45
2024/01/13 16:26:57;;;;;;;4.90;4.43;;;21.40;23.00;;;;;;4975473;28;45467;-45
2024/01/13 16:29:23;;;;;;;5.03;4.50;;;21.50;23.00;;;;;;4990388;28;45290;-43
2024/01/13 16:31:48;;;;;;;5.03;4.53;;;21.50;23.00;;;;;;4963028;28;45006;-43
2024/01/13 16:34:14;;;;;;;5.00;4.53;;;21.50;23.00;;;;;;4987758;28;44790;-43
2024/01/13 16:36:40;;;;;;;5.60;4.97;;;21.50;22.90;;;;;;4962143;28;46091;-47
2024/01/13 16:39:06;;;;;;;4.82;4.35;;;21.50;22.90;;;;;;4974328;28;45316;-46
2024/01/13 16:41:31;;;;;;;5.20;4.70;;;21.60;22.90;;;;;;4976010;28;45000;-44
2024/01/13 16:43:57;;;;;;;5.10;4.60;;;21.60;22.90;;;;;;4986326;28;44837;-46
2024/01/13 16:46:23;;;;;;;4.73;4.23;;;21.60;22.90;;;;;;4972416;28;45215;-43
2024/01/13 16:48:49;;;;;;;4.55;4.15;;;21.60;22.90;;;;;;4983904;28;45709;-44